Time;durP1;ratioP1;P1;durP2;ratioP2;P2;SDS_P1;SDS_P2;PMS_P1;PMS_P2;Temp;Humidity;BMP_temperature;BMP_pressure;BME280_temperature;BME280_humidity;BME280_pressure;Samples;Min_cycle;Max_cycle;Signal;HPM_P1;HPM_P2
2023/08/15 00:00:57;;;;;;;6.75;5.05;;;;;;;22.64;100.00;97679.44;5045788;28;20021;-73
2023/08/15 00:03:22;;;;;;;6.70;5.40;;;;;;;22.52;100.00;97679.91;5038895;28;20080;-73
2023/08/15 00:05:47;;;;;;;7.72;5.07;;;;;;;22.43;100.00;97679.03;5046956;28;20024;-73
2023/08/15 00:08:13;;;;;;;7.75;5.60;;;;;;;22.36;100.00;97686.19;5047980;28;20029;-72
2023/08/15 00:10:38;;;;;;;8.63;5.60;;;;;;;22.38;100.00;97686.00;5041273;28;20110;-72
2023/08/15 00:13:04;;;;;;;8.85;4.95;;;;;;;22.31;100.00;97685.81;5028795;28;20025;-73
2023/08/15 00:15:30;;;;;;;10.45;5.32;;;;;;;22.28;100.00;97682.56;5041350;28;20040;-73
2023/08/15 00:17:56;;;;;;;7.63;5.78;;;;;;;22.17;100.00;97672.81;5037112;28;20022;-73
2023/08/15 00:20:22;;;;;;;16.10;5.93;;;;;;;22.15;100.00;97667.53;5034460;28;20441;-73
2023/08/15 00:22:47;;;;;;;7.00;5.22;;;;;;;22.13;100.00;97672.31;5035359;28;20058;-72
2023/08/15 00:25:13;;;;;;;7.22;5.50;;;;;;;22.14;100.00;97663.13;5029336;28;20029;-73
2023/08/15 00:27:38;;;;;;;7.28;5.72;;;;;;;22.12;100.00;97662.41;5015594;28;20020;-73
2023/08/15 00:30:05;;;;;;;10.18;6.40;;;;;;;22.10;100.00;97667.19;5042779;28;20132;-73
2023/08/15 00:32:35;;;;;;;10.93;6.30;;;;;;;21.96;100.00;97670.53;5034835;28;20029;-73
2023/08/15 00:35:04;;;;;;;11.02;6.70;;;;;;;21.87;100.00;97671.44;5035918;28;20033;-73
2023/08/15 00:37:31;;;;;;;10.75;6.18;;;;;;;21.79;100.00;97676.84;5023113;28;20062;-73
2023/08/15 00:39:57;;;;;;;7.75;5.90;;;;;;;21.78;100.00;97672.41;5046773;28;20048;-74
2023/08/15 00:42:23;;;;;;;10.30;6.10;;;;;;;21.71;100.00;97665.94;5030284;28;20021;-74
2023/08/15 00:44:49;;;;;;;9.63;5.93;;;;;;;21.76;100.00;97676.31;5045558;28;20035;-74
2023/08/15 00:47:14;;;;;;;10.27;6.35;;;;;;;21.72;100.00;97675.78;5033020;28;20490;-74
2023/08/15 00:49:43;;;;;;;13.65;6.47;;;;;;;21.72;100.00;97667.63;5037372;28;20045;-74
2023/08/15 00:52:09;;;;;;;9.82;6.10;;;;;;;21.75;100.00;97672.75;5038177;28;20052;-75
2023/08/15 00:54:35;;;;;;;9.80;6.70;;;;;;;21.76;100.00;97673.59;5033413;28;20036;-74
2023/08/15 00:57:05;;;;;;;9.90;6.35;;;;;;;21.76;100.00;97658.13;5049927;28;20476;-74
2023/08/15 00:59:31;;;;;;;8.05;6.22;;;;;;;21.73;100.00;97653.00;5041221;28;20034;-72
2023/08/15 01:01:59;;;;;;;13.23;6.80;;;;;;;21.71;100.00;97665.94;5026897;28;20029;-73
2023/08/15 01:04:24;;;;;;;9.32;6.60;;;;;;;21.75;100.00;97661.03;5021266;28;20029;-73
2023/08/15 01:06:50;;;;;;;8.38;6.03;;;;;;;21.63;100.00;97657.69;5043549;28;20037;-73
2023/08/15 01:09:16;;;;;;;9.35;6.45;;;;;;;21.67;100.00;97658.22;5040681;28;20546;-73
2023/08/15 01:11:53;;;;;;;7.40;5.55;;;;;;;21.63;100.00;97663.13;5029644;28;20026;-74
2023/08/15 01:14:19;;;;;;;9.93;6.25;;;;;;;21.61;100.00;97662.47;5037751;28;20404;-75
2023/08/15 01:16:48;;;;;;;9.70;6.15;;;;;;;21.60;100.00;97658.00;5038017;28;20454;-74
2023/08/15 01:19:25;;;;;;;7.28;5.88;;;;;;;21.58;100.00;97670.94;5037845;28;20551;-73
2023/08/15 01:21:53;;;;;;;6.22;5.22;;;;;;;21.58;100.00;97654.59;5041315;28;20041;-73
2023/08/15 01:24:19;;;;;;;9.57;5.75;;;;;;;21.44;100.00;97660.66;5048784;28;20032;-73
2023/08/15 01:26:44;;;;;;;8.10;5.70;;;;;;;21.37;100.00;97663.16;5029396;28;20036;-73
2023/08/15 01:29:10;;;;;;;10.60;5.93;;;;;;;21.35;100.00;97667.06;5038895;28;20152;-73
2023/08/15 01:31:36;;;;;;;16.02;5.75;;;;;;;21.34;100.00;97673.50;5037408;28;20029;-73
2023/08/15 01:34:15;;;;;;;8.52;5.47;;;;;;;21.35;100.00;97667.06;5012855;28;20033;-73
2023/08/15 01:36:46;;;;;;;11.02;5.72;;;;;;;21.33;100.00;97678.09;5040347;28;20029;-73
2023/08/15 01:39:13;;;;;;;9.77;6.07;;;;;;;21.25;100.00;97669.00;5032554;28;20032;-73
2023/08/15 01:41:40;;;;;;;8.05;6.18;;;;;;;21.26;100.00;97671.56;5038004;28;20093;-73
2023/08/15 01:44:07;;;;;;;10.05;5.40;;;;;;;21.27;100.00;97670.56;5019004;28;20433;-73
2023/08/15 01:46:33;;;;;;;7.63;5.60;;;;;;;21.28;100.00;97671.41;5022445;28;20395;-73
2023/08/15 01:48:59;;;;;;;7.32;5.53;;;;;;;21.31;100.00;97669.25;5040150;28;20032;-74
2023/08/15 01:51:25;;;;;;;9.05;5.10;;;;;;;21.36;100.00;97671.47;5034944;28;20060;-74
2023/08/15 01:53:51;;;;;;;7.45;5.75;;;;;;;21.39;100.00;97666.56;5044212;28;20029;-74
2023/08/15 01:56:16;;;;;;;6.93;5.30;;;;;;;21.32;100.00;97656.50;5035697;28;20028;-74
2023/08/15 01:58:42;;;;;;;6.97;5.00;;;;;;;21.42;100.00;97649.06;5045379;28;20028;-74
2023/08/15 02:01:07;;;;;;;6.82;5.18;;;;;;;21.45;100.00;97655.03;5042672;28;20029;-74
2023/08/15 02:03:33;;;;;;;8.05;5.90;;;;;;;21.54;100.00;97647.78;5048153;28;20029;-74
2023/08/15 02:05:58;;;;;;;9.88;6.05;;;;;;;21.52;100.00;97652.53;5048751;28;20036;-74
2023/08/15 02:08:24;;;;;;;8.70;5.30;;;;;;;21.54;100.00;97647.78;5037466;28;20029;-73
2023/08/15 02:10:50;;;;;;;6.53;5.18;;;;;;;21.49;100.00;97650.13;5039650;28;20060;-74
2023/08/15 02:13:16;;;;;;;7.75;4.85;;;;;;;21.51;100.00;97648.09;5044001;28;20032;-74
2023/08/15 02:15:42;;;;;;;7.95;5.65;;;;;;;21.49;100.00;97650.13;5035118;28;20032;-74
2023/08/15 02:18:09;;;;;;;6.95;5.43;;;;;;;21.57;100.00;97639.28;5035359;28;20025;-73
2023/08/15 02:20:34;;;;;;;8.00;5.18;;;;;;;21.60;100.00;97637.09;5035036;28;20503;-73
2023/08/15 02:23:00;;;;;;;7.20;5.28;;;;;;;21.63;100.00;97635.91;5043083;28;20033;-73
2023/08/15 02:25:25;;;;;;;7.00;4.82;;;;;;;21.57;100.00;97631.09;5040225;28;20025;-73
2023/08/15 02:27:51;;;;;;;8.85;5.03;;;;;;;21.50;100.00;97646.41;5039687;28;20025;-73
2023/08/15 02:30:17;;;;;;;8.88;5.60;;;;;;;21.45;100.00;97643.28;5040590;28;20049;-73
2023/08/15 02:32:42;;;;;;;8.65;5.30;;;;;;;21.43;100.00;97645.31;5024462;28;20336;-73
2023/08/15 02:35:08;;;;;;;12.43;7.05;;;;;;;21.44;100.00;97647.03;5042948;28;20026;-73
2023/08/15 02:37:34;;;;;;;19.67;6.38;;;;;;;21.46;100.00;97639.56;5040437;28;20036;-73
2023/08/15 02:40:00;;;;;;;11.00;6.00;;;;;;;21.47;100.00;97647.56;5031129;28;20025;-73
2023/08/15 02:42:25;;;;;;;16.80;6.53;;;;;;;21.53;100.00;97640.63;5019920;28;20025;-74
2023/08/15 02:44:51;;;;;;;11.30;6.03;;;;;;;21.45;100.00;97656.91;5024977;28;20017;-73
2023/08/15 02:47:16;;;;;;;12.23;5.45;;;;;;;21.43;100.00;97653.50;5039236;28;20120;-73
2023/08/15 02:49:42;;;;;;;14.65;6.25;;;;;;;21.49;100.00;97661.88;5015324;28;20021;-73
2023/08/15 02:52:07;;;;;;;13.30;6.05;;;;;;;21.43;100.00;97656.22;5042567;28;20085;-73
2023/08/15 02:54:33;;;;;;;15.35;6.88;;;;;;;21.48;100.00;97642.97;5031436;28;20029;-73
2023/08/15 02:56:58;;;;;;;8.70;6.35;;;;;;;21.54;100.00;97647.78;5039402;28;20021;-73
2023/08/15 02:59:24;;;;;;;10.60;5.95;;;;;;;21.56;100.00;97649.31;5042309;28;20025;-73
2023/08/15 03:01:49;;;;;;;12.45;6.07;;;;;;;21.59;100.00;97669.94;5021117;28;20581;-73
2023/08/15 03:04:15;;;;;;;13.65;6.55;;;;;;;21.60;100.00;97671.63;5030015;28;20026;-73
2023/08/15 03:06:42;;;;;;;21.95;9.40;;;;;;;21.58;100.00;97674.53;5038465;28;20021;-75
2023/08/15 03:09:08;;;;;;;10.98;6.47;;;;;;;21.63;100.00;97668.59;5040378;28;20036;-73
2023/08/15 03:11:33;;;;;;;8.07;5.80;;;;;;;21.64;100.00;97681.19;5042260;28;20025;-74
2023/08/15 03:13:59;;;;;;;10.10;5.15;;;;;;;21.68;100.00;97666.25;5032204;28;20033;-73
2023/08/15 03:16:26;;;;;;;6.97;5.45;;;;;;;21.71;100.00;97662.34;5043498;28;20453;-73
2023/08/15 03:18:51;;;;;;;17.77;6.00;;;;;;;21.73;100.00;97673.91;5033740;28;20032;-73
2023/08/15 03:21:17;;;;;;;14.90;6.00;;;;;;;21.68;100.00;97677.16;5042062;28;20396;-73
2023/08/15 03:23:43;;;;;;;29.05;10.52;;;;;;;21.67;100.00;97685.47;5033679;28;20021;-74
2023/08/15 03:26:08;;;;;;;28.50;10.90;;;;;;;21.71;100.00;97673.25;5044697;28;20017;-74
2023/08/15 03:28:34;;;;;;;18.95;6.47;;;;;;;21.68;100.00;97677.16;5032146;28;20028;-74
2023/08/15 03:31:06;;;;;;;24.50;6.57;;;;;;;21.65;100.00;97682.91;5044940;28;20360;-74
2023/08/15 03:33:33;;;;;;;18.45;6.70;;;;;;;21.66;100.00;97694.66;5034275;28;20089;-73
2023/08/15 03:35:58;;;;;;;15.48;6.90;;;;;;;21.65;100.00;97695.66;5044712;28;20052;-74
2023/08/15 03:38:24;;;;;;;15.48;7.22;;;;;;;21.55;100.00;97699.34;5025597;28;20425;-73
2023/08/15 03:41:01;;;;;;;16.50;6.90;;;;;;;21.50;100.00;97698.13;5027549;28;20025;-73
2023/08/15 03:43:26;;;;;;;12.57;6.60;;;;;;;21.43;100.00;97678.84;5035891;28;20029;-72
2023/08/15 03:45:52;;;;;;;16.52;7.97;;;;;;;21.44;100.00;97685.97;5038325;28;20017;-74
2023/08/15 03:48:17;;;;;;;25.88;9.75;;;;;;;21.34;100.00;97679.81;5037135;28;20063;-73
2023/08/15 03:50:43;;;;;;;15.68;8.43;;;;;;;21.29;100.00;97689.44;5043315;28;20626;-74
2023/08/15 03:53:08;;;;;;;14.10;6.72;;;;;;;21.33;100.00;97699.00;5041022;28;20029;-74
2023/08/15 03:55:34;;;;;;;14.65;8.13;;;;;;;21.32;100.00;97689.16;5037637;28;20057;-73
2023/08/15 03:58:00;;;;;;;14.27;6.82;;;;;;;21.33;100.00;97699.00;5042563;28;20029;-73
2023/08/15 04:00:25;;;;;;;12.70;6.97;;;;;;;21.36;100.00;97704.97;5031057;28;20378;-73
2023/08/15 04:02:51;;;;;;;8.80;6.10;;;;;;;21.39;100.00;97714.69;5028449;28;20041;-74
2023/08/15 04:05:17;;;;;;;7.82;5.82;;;;;;;21.40;100.00;97710.97;5047126;28;20548;-74
2023/08/15 04:07:43;;;;;;;7.55;5.97;;;;;;;21.42;100.00;97715.25;5041265;28;20021;-74
2023/08/15 04:10:11;;;;;;;8.73;5.93;;;;;;;21.39;100.00;97720.13;5041586;28;20488;-74
2023/08/15 04:12:37;;;;;;;10.23;6.85;;;;;;;21.31;100.00;97707.34;5031633;28;20392;-73
2023/08/15 04:15:05;;;;;;;14.80;6.65;;;;;;;21.33;100.00;97718.06;5029764;28;20021;-73
2023/08/15 04:17:30;;;;;;;11.10;6.55;;;;;;;21.37;100.00;97731.19;5038488;28;20029;-74
2023/08/15 04:19:56;;;;;;;12.35;6.93;;;;;;;21.48;100.00;97730.94;5026664;28;20108;-73
2023/08/15 04:22:21;;;;;;;28.05;10.48;;;;;;;21.46;100.00;97746.59;5023678;28;20411;-74
2023/08/15 04:24:47;;;;;;;13.48;7.18;;;;;;;21.51;100.00;97746.94;5034059;28;20166;-74
2023/08/15 04:27:12;;;;;;;38.60;11.27;;;;;;;21.59;100.00;97738.84;5030324;28;20036;-73
2023/08/15 04:29:38;;;;;;;66.32;33.22;;;;;;;21.47;100.00;97722.94;5015578;28;20056;-74
2023/08/15 04:32:04;;;;;;;13.63;7.50;;;;;;;21.29;100.00;97732.97;5038594;28;20053;-73
2023/08/15 04:34:29;;;;;;;16.63;7.30;;;;;;;21.15;100.00;97747.16;5037093;28;20032;-74
2023/08/15 04:36:55;;;;;;;48.25;15.05;;;;;;;20.91;100.00;97743.16;5017871;28;20408;-74
2023/08/15 04:39:23;;;;;;;22.08;10.10;;;;;;;20.86;100.00;97759.06;5029323;28;20040;-74
2023/08/15 04:41:49;;;;;;;16.70;9.10;;;;;;;20.75;100.00;97769.31;5026768;27;20090;-74
2023/08/15 04:44:15;;;;;;;18.17;9.75;;;;;;;20.72;100.00;97762.31;5034335;28;20025;-74
2023/08/15 04:46:40;;;;;;;34.05;21.38;;;;;;;20.73;100.00;97774.91;5032261;28;20030;-74
2023/08/15 04:49:06;;;;;;;13.48;7.38;;;;;;;20.71;100.00;97770.59;5035562;28;20027;-74
2023/08/15 04:51:31;;;;;;;26.10;9.63;;;;;;;20.60;100.00;97784.44;5038933;28;20453;-74
2023/08/15 04:53:57;;;;;;;19.50;9.35;;;;;;;20.55;100.00;97795.72;5029076;28;20025;-74
2023/08/15 04:56:23;;;;;;;24.55;9.68;;;;;;;20.57;100.00;97799.19;5026543;28;20051;-74
2023/08/15 04:58:49;;;;;;;15.65;8.85;;;;;;;20.60;100.00;97793.44;5042747;28;20038;-74
2023/08/15 05:01:15;;;;;;;17.83;8.45;;;;;;;20.69;100.00;97795.25;5029111;28;20052;-73
2023/08/15 05:03:40;;;;;;;14.20;8.15;;;;;;;20.65;100.00;97780.25;5035549;28;20500;-73
2023/08/15 05:06:06;;;;;;;15.55;7.35;;;;;;;20.79;100.00;97782.47;5027277;28;20076;-73
2023/08/15 05:08:32;;;;;;;33.72;11.35;;;;;;;20.80;100.00;97795.03;5025925;28;20026;-73
2023/08/15 05:10:58;;;;;;;41.17;13.05;;;;;;;20.92;100.00;97806.53;5012430;28;20025;-73
2023/08/15 05:13:24;;;;;;;24.33;9.40;;;;;;;20.97;100.00;97812.41;5045603;28;20452;-73
2023/08/15 05:15:50;;;;;;;16.40;8.30;;;;;;;21.08;100.00;97799.47;5029161;28;20071;-73
2023/08/15 05:18:16;;;;;;;22.58;7.45;;;;;;;21.22;100.00;97805.38;5033518;28;20034;-73
2023/08/15 05:20:42;;;;;;;17.17;7.57;;;;;;;21.28;100.00;97804.75;5029725;28;20164;-73
2023/08/15 05:23:07;;;;;;;22.63;8.75;;;;;;;21.29;100.00;97817.34;5042988;28;20036;-73
2023/08/15 05:25:33;;;;;;;12.48;7.53;;;;;;;21.32;100.00;97811.63;5042736;28;20033;-73
2023/08/15 05:28:04;;;;;;;13.10;7.43;;;;;;;21.44;100.00;97821.25;5015556;28;20538;-73
2023/08/15 05:30:31;;;;;;;15.23;7.25;;;;;;;21.60;100.00;97818.66;5034387;28;20429;-72
2023/08/15 05:32:57;;;;;;;12.90;6.80;;;;;;;21.66;100.00;97809.84;5034164;28;20044;-73
2023/08/15 05:35:25;;;;;;;14.18;7.72;;;;;;;21.68;100.00;97798.81;5045743;28;20340;-74
2023/08/15 05:37:51;;;;;;;13.00;8.35;;;;;;;21.69;100.00;97798.66;5046838;28;20388;-73
2023/08/15 05:40:17;;;;;;;11.43;7.63;;;;;;;21.94;100.00;97802.44;5037503;28;20032;-73
2023/08/15 05:42:43;;;;;;;26.27;8.88;;;;;;;22.18;100.00;97804.50;5017862;28;20090;-74
2023/08/15 05:45:09;;;;;;;13.68;7.97;;;;;;;22.49;100.00;97802.94;5040952;28;20445;-74
2023/08/15 05:47:35;;;;;;;19.83;12.90;;;;;;;22.77;100.00;97800.88;5046087;28;20098;-74
2023/08/15 05:50:00;;;;;;;13.35;6.50;;;;;;;22.83;100.00;97784.72;5038061;28;20165;-73
2023/08/15 05:52:27;;;;;;;8.48;6.13;;;;;;;22.83;100.00;97789.31;5037597;28;20037;-74
2023/08/15 05:54:53;;;;;;;13.55;6.35;;;;;;;22.76;100.00;97780.09;5017268;28;20569;-73
2023/08/15 05:57:19;;;;;;;11.68;7.20;;;;;;;22.90;100.00;97791.22;5033497;28;20089;-73
2023/08/15 05:59:45;;;;;;;14.80;7.30;;;;;;;22.92;100.00;97791.91;5037937;28;20026;-76
2023/08/15 06:02:11;;;;;;;11.95;6.63;;;;;;;23.00;100.00;97786.50;5028951;28;20031;-77
2023/08/15 06:04:39;;;;;;;10.88;6.63;;;;;;;23.39;100.00;97788.59;5028549;28;20098;-77
2023/08/15 06:07:05;;;;;;;15.02;7.82;;;;;;;23.72;100.00;97788.47;5028737;28;20029;-77
2023/08/15 06:09:31;;;;;;;14.38;6.60;;;;;;;23.84;100.00;97780.78;5052785;28;20544;-81
2023/08/15 06:11:56;;;;;;;14.85;7.45;;;;;;;24.48;100.00;97777.09;5035920;28;20025;-80
2023/08/15 06:14:22;;;;;;;12.45;6.40;;;;;;;24.94;100.00;97766.31;5024728;28;20022;-81
2023/08/15 06:16:48;;;;;;;13.35;7.35;;;;;;;25.14;100.00;97782.09;5025959;28;20119;-73
2023/08/15 06:19:13;;;;;;;8.60;5.30;;;;;;;25.41;100.00;97777.16;5023075;28;20454;-75
2023/08/15 06:21:42;;;;;;;9.40;5.68;;;;;;;26.05;100.00;97776.63;5030250;28;20040;-82
2023/08/15 06:24:09;;;;;;;11.20;7.15;;;;;;;26.57;100.00;97767.53;5023320;28;20033;-81
2023/08/15 06:26:35;;;;;;;12.85;5.97;;;;;;;26.59;100.00;97763.53;5032679;28;20033;-81
2023/08/15 06:29:01;;;;;;;9.25;4.97;;;;;;;26.21;100.00;97764.69;5040931;28;20081;-80
2023/08/15 06:31:26;;;;;;;12.30;6.00;;;;;;;25.98;100.00;97764.69;5041723;28;20024;-81
2023/08/15 06:33:52;;;;;;;19.52;5.60;;;;;;;26.24;100.00;97770.63;5042979;28;20068;-82
2023/08/15 06:36:17;;;;;;;10.73;5.38;;;;;;;26.13;100.00;97762.84;5020374;28;20067;-77
2023/08/15 06:38:43;;;;;;;11.60;6.07;;;;;;;26.08;100.00;97764.44;5045118;28;20120;-77
2023/08/15 06:41:08;;;;;;;13.68;5.38;;;;;;;26.18;100.00;97760.41;5044835;28;20344;-77
2023/08/15 06:43:34;;;;;;;28.88;11.75;;;;;;;26.17;100.00;97779.81;5041516;28;20037;-77
2023/08/15 06:45:59;;;;;;;8.73;5.90;;;;;;;25.79;100.00;97781.66;5026641;28;20033;-77
2023/08/15 06:48:25;;;;;;;14.82;6.70;;;;;;;25.94;100.00;97790.78;5026697;28;20025;-77
2023/08/15 06:50:51;;;;;;;11.05;6.30;;;;;;;27.29;100.00;97761.06;5041098;28;20025;-77
2023/08/15 06:53:16;;;;;;;11.07;6.25;;;;;;;28.37;98.23;97766.31;5028439;28;20029;-78
2023/08/15 06:55:42;;;;;;;16.65;8.73;;;;;;;29.43;96.12;97774.94;5045230;28;20033;-78
2023/08/15 06:58:10;;;;;;;10.82;5.63;;;;;;;30.57;74.14;97748.91;5044909;28;20518;-78
2023/08/15 07:00:36;;;;;;;7.93;4.90;;;;;;;29.81;76.33;97761.41;5045348;28;20551;-77
2023/08/15 07:03:01;;;;;;;9.05;5.32;;;;;;;31.09;71.40;97747.06;5060034;28;20048;-77
2023/08/15 07:05:36;;;;;;;14.10;6.22;;;;;;;32.07;61.50;97756.69;5041337;28;20018;-77
2023/08/15 07:08:03;;;;;;;11.90;5.45;;;;;;;32.84;57.31;97745.06;5025654;28;20040;-79
2023/08/15 07:10:29;;;;;;;10.02;5.03;;;;;;;33.61;55.31;97740.69;5025402;28;20025;-77
2023/08/15 07:12:55;;;;;;;14.10;4.72;;;;;;;33.63;48.06;97732.97;5025250;28;20181;-84
2023/08/15 07:15:21;;;;;;;16.65;5.43;;;;;;;32.93;50.02;97737.28;5038734;28;20115;-85
2023/08/15 07:17:46;;;;;;;9.07;4.95;;;;;;;32.51;50.80;97734.34;5020545;28;20237;-81
2023/08/15 07:20:14;;;;;;;9.05;4.63;;;;;;;31.95;50.00;97715.03;5041672;28;20033;-80
2023/08/15 07:22:40;;;;;;;16.13;5.97;;;;;;;32.13;51.08;97728.09;5032895;28;20036;-81
2023/08/15 07:25:07;;;;;;;8.70;4.93;;;;;;;32.88;50.59;97737.16;5030478;28;20090;-80
2023/08/15 07:27:32;;;;;;;7.88;4.85;;;;;;;33.18;46.75;97724.22;5041831;28;20471;-80
2023/08/15 07:29:58;;;;;;;9.38;4.90;;;;;;;33.14;47.61;97728.53;5034791;28;20057;-80
2023/08/15 07:32:27;;;;;;;48.42;5.95;;;;;;;33.65;45.11;97731.69;5044335;28;20476;-80
2023/08/15 07:34:53;;;;;;;8.93;4.82;;;;;;;33.49;45.26;97737.84;5031243;28;20037;-81
2023/08/15 07:37:18;;;;;;;9.82;4.78;;;;;;;33.91;46.86;97747.06;5043505;28;20040;-83
2023/08/15 07:39:45;;;;;;;9.15;5.28;;;;;;;34.02;44.02;97731.50;5015030;28;20468;-82
2023/08/15 07:42:11;;;;;;;5.30;4.55;;;;;;;34.36;44.10;97741.00;5045101;28;20064;-79
2023/08/15 07:44:36;;;;;;;7.10;4.93;;;;;;;34.49;42.67;97733.25;5050728;28;20039;-77
2023/08/15 07:47:02;;;;;;;10.55;4.55;;;;;;;33.07;44.51;97727.75;5025788;28;20480;-77
2023/08/15 07:49:30;;;;;;;19.25;5.80;;;;;;;34.12;44.66;97737.34;5032168;28;20037;-77
2023/08/15 07:51:56;;;;;;;10.30;5.03;;;;;;;33.45;44.36;97730.22;5043457;28;20028;-77
2023/08/15 07:54:21;;;;;;;13.00;5.35;;;;;;;32.22;44.91;97733.13;5044639;28;20472;-77
2023/08/15 07:56:47;;;;;;;15.35;5.43;;;;;;;31.22;49.86;97735.94;5043939;28;20371;-76
2023/08/15 07:59:13;;;;;;;10.15;5.13;;;;;;;30.55;51.94;97742.75;5044074;28;20031;-77
2023/08/15 08:01:38;;;;;;;30.33;6.60;;;;;;;29.99;54.95;97752.56;5027103;28;20035;-76
2023/08/15 08:04:04;;;;;;;32.75;7.47;;;;;;;29.65;57.84;97755.47;5024276;28;20101;-77
2023/08/15 08:06:30;;;;;;;23.98;6.15;;;;;;;29.17;61.33;97750.00;5007659;28;20033;-77
2023/08/15 08:08:55;;;;;;;7.53;5.55;;;;;;;28.83;64.25;97750.09;5037788;28;20542;-78
2023/08/15 08:11:30;;;;;;;43.97;6.75;;;;;;;29.68;63.82;97752.28;5044828;28;20017;-77
2023/08/15 08:13:55;;;;;;;14.98;5.50;;;;;;;30.58;60.23;97741.44;5034084;28;20030;-77
2023/08/15 08:16:21;;;;;;;8.18;5.20;;;;;;;30.37;57.22;97742.53;5044130;28;20484;-76
2023/08/15 08:18:47;;;;;;;30.42;6.57;;;;;;;30.95;57.06;97737.09;5043375;28;20039;-76
2023/08/15 08:21:15;;;;;;;9.45;5.07;;;;;;;30.83;57.61;97747.13;5043531;28;20067;-76
2023/08/15 08:23:40;;;;;;;12.40;5.85;;;;;;;31.03;56.05;97740.50;5027123;28;20488;-77
2023/08/15 08:26:06;;;;;;;10.68;5.70;;;;;;;31.32;55.30;97744.59;5038768;28;20033;-77
2023/08/15 08:28:31;;;;;;;7.38;4.60;;;;;;;31.57;53.48;97741.91;5039739;28;20128;-77
2023/08/15 08:30:58;;;;;;;11.05;5.15;;;;;;;32.43;50.84;97723.53;5043516;28;20052;-77
2023/08/15 08:33:24;;;;;;;7.28;4.90;;;;;;;32.70;49.66;97727.75;5060572;28;20036;-78
2023/08/15 08:35:50;;;;;;;15.13;5.57;;;;;;;33.10;48.85;97724.53;5026684;28;20029;-77
2023/08/15 08:38:15;;;;;;;12.73;6.28;;;;;;;33.48;46.49;97722.28;5045210;28;20035;-77
2023/08/15 08:40:42;;;;;;;9.30;6.70;;;;;;;34.09;44.80;97716.41;5044564;28;20504;-78
2023/08/15 08:43:09;;;;;;;13.40;5.30;;;;;;;33.81;44.29;97712.66;5044756;28;20021;-77
2023/08/15 08:45:39;;;;;;;16.38;6.68;;;;;;;33.09;46.64;97722.84;5060087;28;20017;-76
2023/08/15 08:48:08;;;;;;;13.70;5.18;;;;;;;32.52;47.61;97719.38;5042826;28;20037;-77
2023/08/15 08:50:34;;;;;;;9.30;6.10;;;;;;;31.73;49.94;97738.63;5043178;28;20029;-76
2023/08/15 08:52:59;;;;;;;13.23;6.65;;;;;;;32.01;50.20;97740.94;5042924;28;20101;-76
2023/08/15 08:55:27;;;;;;;15.25;6.50;;;;;;;30.84;52.08;97735.84;5059923;28;20103;-77
2023/08/15 08:57:53;;;;;;;10.52;5.95;;;;;;;29.80;56.66;97737.66;5043879;28;20487;-77
2023/08/15 09:00:22;;;;;;;12.27;6.05;;;;;;;29.28;62.26;97752.22;5043437;28;20214;-77
2023/08/15 09:02:48;;;;;;;16.13;5.60;;;;;;;28.44;66.09;97756.22;5043723;28;20029;-78
2023/08/15 09:05:13;;;;;;;13.18;5.65;;;;;;;28.56;64.83;97748.22;5028120;28;20033;-77
2023/08/15 09:07:39;;;;;;;11.65;7.03;;;;;;;27.97;66.62;97755.00;5027603;28;20093;-78
2023/08/15 09:10:06;;;;;;;13.60;7.38;;;;;;;27.73;70.36;97763.66;5037496;28;20041;-79
2023/08/15 09:12:35;;;;;;;16.90;7.85;;;;;;;27.72;70.71;97763.84;5047301;28;20036;-79
2023/08/15 09:15:04;;;;;;;10.82;5.95;;;;;;;27.56;74.63;97770.50;5045293;28;20057;-78
2023/08/15 09:17:30;;;;;;;10.13;5.47;;;;;;;27.59;75.07;97770.09;5044085;27;20034;-81
2023/08/15 09:19:56;;;;;;;16.95;6.50;;;;;;;27.36;78.06;97756.50;5026970;28;20037;-78
2023/08/15 09:22:25;;;;;;;12.10;7.30;;;;;;;27.02;80.44;97766.44;5036366;28;20037;-79
2023/08/15 09:24:51;;;;;;;13.07;6.65;;;;;;;26.78;81.40;97776.69;5026827;28;20026;-77
2023/08/15 09:27:19;;;;;;;15.00;9.07;;;;;;;26.74;83.94;97772.63;5026338;28;20073;-79
2023/08/15 09:29:45;;;;;;;11.15;5.38;;;;;;;26.56;85.22;97774.91;5030804;28;20444;-78
2023/08/15 09:32:11;;;;;;;12.98;6.78;;;;;;;26.30;95.66;97793.72;5024723;28;20037;-77
2023/08/15 09:34:37;;;;;;;14.73;6.53;;;;;;;26.32;100.00;97789.75;5039320;28;20033;-76
2023/08/15 09:37:02;;;;;;;17.77;7.18;;;;;;;26.05;96.32;97775.78;5035731;28;20036;-78
2023/08/15 09:39:28;;;;;;;13.50;6.93;;;;;;;26.09;100.00;97777.09;5034234;28;20029;-77
2023/08/15 09:41:54;;;;;;;12.48;6.03;;;;;;;25.83;97.50;97775.66;5046634;28;20427;-80
2023/08/15 09:44:34;;;;;;;13.13;7.00;;;;;;;25.68;100.00;97779.38;5036458;28;20055;-81
2023/08/15 09:47:00;;;;;;;32.08;22.60;;;;;;;25.56;100.00;97772.63;5010335;28;20105;-79
2023/08/15 09:49:29;;;;;;;17.70;10.00;;;;;;;25.44;100.00;97782.28;5028804;28;20477;-78
2023/08/15 09:51:59;;;;;;;14.55;5.97;;;;;;;25.59;100.00;97778.59;5015242;28;20034;-76
2023/08/15 09:54:25;;;;;;;16.50;5.97;;;;;;;25.52;100.00;97772.13;5029499;28;20550;-76
2023/08/15 09:56:51;;;;;;;9.23;6.03;;;;;;;25.44;100.00;97787.75;5045678;28;20033;-76
2023/08/15 09:59:17;;;;;;;7.72;5.60;;;;;;;25.45;100.00;97768.38;5032658;28;20760;-76
2023/08/15 10:01:45;;;;;;;12.27;5.95;;;;;;;25.38;100.00;97772.03;5026028;28;20029;-76
2023/08/15 10:04:12;;;;;;;16.33;7.13;;;;;;;25.33;100.00;97778.06;5029696;28;20029;-76
2023/08/15 10:06:38;;;;;;;20.50;6.80;;;;;;;25.10;100.00;97775.28;5017823;28;20063;-77
2023/08/15 10:09:05;;;;;;;10.88;6.97;;;;;;;25.13;100.00;97772.19;5026035;28;20042;-76
2023/08/15 10:11:43;;;;;;;13.98;6.97;;;;;;;25.26;100.00;97769.72;5026832;28;20041;-76
2023/08/15 10:14:09;;;;;;;9.82;5.80;;;;;;;25.21;100.00;97757.59;5020226;28;20048;-76
2023/08/15 10:16:37;;;;;;;10.25;6.72;;;;;;;25.26;100.00;97758.75;5042989;28;20116;-76
2023/08/15 10:19:09;;;;;;;8.98;6.07;;;;;;;24.96;100.00;97750.56;5025517;28;20033;-76
2023/08/15 10:21:59;;;;;;;21.63;6.57;;;;;;;24.90;100.00;97752.13;5017552;28;20523;-76
2023/08/15 10:24:29;;;;;;;8.40;6.25;;;;;;;24.55;100.00;97736.22;5029507;28;20040;-74
2023/08/15 10:27:05;;;;;;;11.52;6.95;;;;;;;24.72;100.00;97759.72;5030340;28;20024;-76
2023/08/15 10:32:55;;;;;;;10.05;6.97;;;;;;;24.79;100.00;97771.69;5009018;28;20103;-78
2023/08/15 10:35:26;;;;;;;14.02;8.05;;;;;;;24.74;100.00;97782.28;5009816;28;20026;-76
2023/08/15 10:37:55;;;;;;;13.35;6.78;;;;;;;24.74;100.00;97774.94;5004531;28;20121;-76
2023/08/15 10:40:20;;;;;;;11.70;6.78;;;;;;;24.74;100.00;97776.81;4971666;28;20132;-76
2023/08/15 10:43:00;;;;;;;10.82;6.68;;;;;;;24.66;100.00;97782.31;5004480;28;20133;-76
2023/08/15 10:45:26;;;;;;;13.70;7.05;;;;;;;24.61;100.00;97784.75;5004428;28;20446;-75
2023/08/15 10:47:55;;;;;;;12.25;7.28;;;;;;;24.45;100.00;97779.34;4995711;28;20680;-76
2023/08/15 10:50:22;;;;;;;12.98;6.85;;;;;;;24.50;100.00;97785.13;5023726;28;20504;-76
2023/08/15 10:52:57;;;;;;;13.88;7.25;;;;;;;24.50;100.00;97783.25;5023940;28;20040;-76
2023/08/15 10:55:27;;;;;;;19.10;7.93;;;;;;;24.45;100.00;97796.59;5023927;28;20037;-76
2023/08/15 10:57:56;;;;;;;22.15;8.02;;;;;;;24.28;100.00;97782.13;5023957;28;20507;-76
2023/08/15 11:00:22;;;;;;;10.77;7.45;;;;;;;24.37;100.00;97787.53;5023617;28;20415;-77
2023/08/15 11:02:51;;;;;;;14.40;7.18;;;;;;;24.22;100.00;97796.47;5013371;28;20041;-77
2023/08/15 11:05:20;;;;;;;10.00;5.95;;;;;;;24.09;100.00;97787.91;5045939;28;20464;-76
2023/08/15 11:07:45;;;;;;;15.23;6.10;;;;;;;24.22;100.00;97796.47;5044535;28;20033;-76
2023/08/15 11:10:14;;;;;;;11.80;7.22;;;;;;;24.05;100.00;97786.59;5044600;28;20029;-76
2023/08/15 11:12:50;;;;;;;14.95;6.38;;;;;;;23.84;100.00;97796.34;5044818;28;20028;-76
2023/08/15 11:15:16;;;;;;;10.73;7.70;;;;;;;23.77;100.00;97793.44;5044868;28;20053;-75
2023/08/15 11:17:46;;;;;;;18.58;7.40;;;;;;;23.98;100.00;97791.03;5039669;28;20048;-76
2023/08/15 11:20:11;;;;;;;27.65;15.38;;;;;;;23.91;100.00;97795.47;5008138;28;20041;-76
2023/08/15 11:22:37;;;;;;;8.10;5.82;;;;;;;23.71;100.00;97783.19;5024474;28;20105;-75